sensor_id;sensor_type;location;lat;lon;timestamp;pressure;altitude;pressure_sealevel;temperature;humidity
61814;BME280;57055;-35.296;149.168;2023-05-12T00:00:02;96401.04;;;6.26;64.34
61814;BME280;57055;-35.296;149.168;2023-05-12T00:02:31;96400.80;;;6.41;64.01
61814;BME280;57055;-35.296;149.168;2023-05-12T00:05:00;96393.85;;;6.81;63.54
61814;BME280;57055;-35.296;149.168;2023-05-12T00:07:29;96393.45;;;6.77;63.10
61814;BME280;57055;-35.296;149.168;2023-05-12T00:09:58;96395.80;;;6.96;62.84
61814;BME280;57055;-35.296;149.168;2023-05-12T00:12:27;96393.99;;;7.07;63.36
61814;BME280;57055;-35.296;149.168;2023-05-12T00:14:56;96393.44;;;7.23;63.03
61814;BME280;57055;-35.296;149.168;2023-05-12T00:17:25;96389.88;;;7.44;62.85
61814;BME280;57055;-35.296;149.168;2023-05-12T00:19:54;96390.52;;;7.53;62.63
61814;BME280;57055;-35.296;149.168;2023-05-12T00:22:22;96387.38;;;7.40;62.34
61814;BME280;57055;-35.296;149.168;2023-05-12T00:24:51;96391.02;;;7.73;62.19
61814;BME280;57055;-35.296;149.168;2023-05-12T00:27:20;96386.95;;;7.35;62.47
61814;BME280;57055;-35.296;149.168;2023-05-12T00:29:49;96386.77;;;7.39;62.41
61814;BME280;57055;-35.296;149.168;2023-05-12T00:32:17;96388.22;;;7.60;61.90
61814;BME280;57055;-35.296;149.168;2023-05-12T00:34:46;96384.21;;;7.69;61.90
61814;BME280;57055;-35.296;149.168;2023-05-12T00:37:15;96383.59;;;7.80;61.67
61814;BME280;57055;-35.296;149.168;2023-05-12T00:39:44;96383.65;;;7.95;61.94
61814;BME280;57055;-35.296;149.168;2023-05-12T00:42:13;96386.18;;;8.29;61.61
61814;BME280;57055;-35.296;149.168;2023-05-12T00:44:42;96388.85;;;8.04;62.20
61814;BME280;57055;-35.296;149.168;2023-05-12T00:47:11;96389.52;;;8.19;61.85
61814;BME280;57055;-35.296;149.168;2023-05-12T00:49:39;96387.25;;;8.11;61.71
61814;BME280;57055;-35.296;149.168;2023-05-12T00:52:09;96380.13;;;8.42;61.39
61814;BME280;57055;-35.296;149.168;2023-05-12T00:54:38;96378.95;;;8.61;60.91
61814;BME280;57055;-35.296;149.168;2023-05-12T00:57:08;96376.93;;;8.60;60.76
61814;BME280;57055;-35.296;149.168;2023-05-12T00:59:37;96372.05;;;9.02;60.53
61814;BME280;57055;-35.296;149.168;2023-05-12T01:02:06;96370.17;;;9.24;60.16
61814;BME280;57055;-35.296;149.168;2023-05-12T01:04:36;96363.55;;;9.20;60.05
61814;BME280;57055;-35.296;149.168;2023-05-12T01:07:11;96358.07;;;9.18;59.56
61814;BME280;57055;-35.296;149.168;2023-05-12T01:09:43;96359.27;;;9.22;58.95
61814;BME280;57055;-35.296;149.168;2023-05-12T01:12:12;96358.71;;;9.77;58.38
61814;BME280;57055;-35.296;149.168;2023-05-12T01:14:42;96355.21;;;9.93;57.66
61814;BME280;57055;-35.296;149.168;2023-05-12T01:17:12;96350.86;;;9.84;57.76
61814;BME280;57055;-35.296;149.168;2023-05-12T01:19:47;96350.90;;;9.94;57.85
61814;BME280;57055;-35.296;149.168;2023-05-12T01:22:17;96348.57;;;9.97;57.47
61814;BME280;57055;-35.296;149.168;2023-05-12T01:24:50;96340.93;;;10.13;57.13
61814;BME280;57055;-35.296;149.168;2023-05-12T01:27:22;96334.76;;;10.55;56.83
61814;BME280;57055;-35.296;149.168;2023-05-12T01:29:51;96334.75;;;10.49;56.54
61814;BME280;57055;-35.296;149.168;2023-05-12T01:32:21;96328.30;;;10.27;56.07
61814;BME280;57055;-35.296;149.168;2023-05-12T01:34:50;96331.11;;;10.73;55.76
61814;BME280;57055;-35.296;149.168;2023-05-12T01:37:19;96321.84;;;10.88;55.50
61814;BME280;57055;-35.296;149.168;2023-05-12T01:39:48;96316.88;;;10.74;55.36
61814;BME280;57055;-35.296;149.168;2023-05-12T01:42:17;96315.95;;;10.95;55.39
61814;BME280;57055;-35.296;149.168;2023-05-12T01:44:46;96310.42;;;11.15;54.75
61814;BME280;57055;-35.296;149.168;2023-05-12T01:47:15;96305.70;;;11.19;54.38
61814;BME280;57055;-35.296;149.168;2023-05-12T01:49:43;96298.91;;;11.20;54.35
61814;BME280;57055;-35.296;149.168;2023-05-12T01:52:12;96293.76;;;11.39;53.74
61814;BME280;57055;-35.296;149.168;2023-05-12T01:54:42;96282.68;;;11.49;53.96
61814;BME280;57055;-35.296;149.168;2023-05-12T01:57:11;96276.19;;;11.41;53.93
61814;BME280;57055;-35.296;149.168;2023-05-12T01:59:40;96273.97;;;11.54;52.27
61814;BME280;57055;-35.296;149.168;2023-05-12T02:02:08;96269.51;;;11.72;52.64
61814;BME280;57055;-35.296;149.168;2023-05-12T02:04:37;96263.99;;;11.85;52.08
61814;BME280;57055;-35.296;149.168;2023-05-12T02:07:06;96261.15;;;11.92;52.06
61814;BME280;57055;-35.296;149.168;2023-05-12T02:09:34;96257.09;;;12.14;51.58
61814;BME280;57055;-35.296;149.168;2023-05-12T02:12:03;96253.57;;;12.01;51.21
61814;BME280;57055;-35.296;149.168;2023-05-12T02:14:33;96250.56;;;12.17;51.42
61814;BME280;57055;-35.296;149.168;2023-05-12T02:17:02;96244.79;;;12.32;51.38
61814;BME280;57055;-35.296;149.168;2023-05-12T02:19:30;96238.58;;;12.49;49.87
61814;BME280;57055;-35.296;149.168;2023-05-12T02:21:59;96239.39;;;12.68;49.24
61814;BME280;57055;-35.296;149.168;2023-05-12T02:24:28;96234.57;;;12.24;48.65
61814;BME280;57055;-35.296;149.168;2023-05-12T02:26:56;96227.56;;;12.34;48.30
61814;BME280;57055;-35.296;149.168;2023-05-12T02:29:25;96228.66;;;12.89;47.78
61814;BME280;57055;-35.296;149.168;2023-05-12T02:31:54;96219.42;;;12.90;47.36
61814;BME280;57055;-35.296;149.168;2023-05-12T02:34:22;96222.27;;;13.07;47.35
61814;BME280;57055;-35.296;149.168;2023-05-12T02:36:52;96219.26;;;12.58;47.55
61814;BME280;57055;-35.296;149.168;2023-05-12T02:39:21;96218.17;;;12.70;46.85
61814;BME280;57055;-35.296;149.168;2023-05-12T02:41:49;96211.66;;;12.82;46.74
61814;BME280;57055;-35.296;149.168;2023-05-12T02:44:18;96210.90;;;13.05;46.27
61814;BME280;57055;-35.296;149.168;2023-05-12T02:46:47;96206.30;;;12.78;46.76
61814;BME280;57055;-35.296;149.168;2023-05-12T02:49:15;96204.80;;;12.97;45.81
61814;BME280;57055;-35.296;149.168;2023-05-12T02:51:44;96195.62;;;13.00;46.10
61814;BME280;57055;-35.296;149.168;2023-05-12T02:54:12;96194.29;;;13.09;46.21
61814;BME280;57055;-35.296;149.168;2023-05-12T02:56:41;96189.40;;;13.21;46.30
61814;BME280;57055;-35.296;149.168;2023-05-12T02:59:10;96192.21;;;13.11;48.55
61814;BME280;57055;-35.296;149.168;2023-05-12T03:01:38;96189.29;;;13.30;47.83
61814;BME280;57055;-35.296;149.168;2023-05-12T03:04:07;96188.11;;;13.41;47.91
61814;BME280;57055;-35.296;149.168;2023-05-12T03:06:36;96179.80;;;13.53;46.84
61814;BME280;57055;-35.296;149.168;2023-05-12T03:09:04;96180.78;;;13.64;47.99
61814;BME280;57055;-35.296;149.168;2023-05-12T03:11:33;96181.39;;;13.52;47.67
61814;BME280;57055;-35.296;149.168;2023-05-12T03:14:02;96178.69;;;13.74;46.95
61814;BME280;57055;-35.296;149.168;2023-05-12T03:16:30;96180.41;;;13.75;46.05
61814;BME280;57055;-35.296;149.168;2023-05-12T03:18:59;96178.24;;;13.70;46.14
61814;BME280;57055;-35.296;149.168;2023-05-12T03:21:28;96176.58;;;13.73;44.91
61814;BME280;57055;-35.296;149.168;2023-05-12T03:23:57;96179.22;;;13.49;45.66
61814;BME280;57055;-35.296;149.168;2023-05-12T03:26:26;96176.11;;;14.16;44.63
61814;BME280;57055;-35.296;149.168;2023-05-12T03:28:54;96172.20;;;13.72;45.64
61814;BME280;57055;-35.296;149.168;2023-05-12T03:31:23;96171.76;;;14.02;44.37
61814;BME280;57055;-35.296;149.168;2023-05-12T03:33:51;96174.27;;;13.90;46.59
61814;BME280;57055;-35.296;149.168;2023-05-12T03:36:20;96170.03;;;13.95;44.79
61814;BME280;57055;-35.296;149.168;2023-05-12T03:38:49;96167.72;;;14.19;46.15
61814;BME280;57055;-35.296;149.168;2023-05-12T03:41:18;96168.03;;;14.03;46.63
61814;BME280;57055;-35.296;149.168;2023-05-12T03:43:47;96168.61;;;14.14;45.96
61814;BME280;57055;-35.296;149.168;2023-05-12T03:46:16;96167.49;;;13.90;45.28
61814;BME280;57055;-35.296;149.168;2023-05-12T03:48:44;96169.95;;;13.98;45.81
61814;BME280;57055;-35.296;149.168;2023-05-12T03:51:13;96167.28;;;13.79;45.98
61814;BME280;57055;-35.296;149.168;2023-05-12T03:53:41;96165.47;;;14.00;45.68
61814;BME280;57055;-35.296;149.168;2023-05-12T03:56:10;96162.88;;;13.79;45.10
61814;BME280;57055;-35.296;149.168;2023-05-12T03:58:39;96163.76;;;13.87;45.39
61814;BME280;57055;-35.296;149.168;2023-05-12T04:01:07;96167.60;;;13.82;46.09
61814;BME280;57055;-35.296;149.168;2023-05-12T04:03:36;96165.65;;;14.09;46.07
61814;BME280;57055;-35.296;149.168;2023-05-12T04:06:05;96168.70;;;13.63;45.46
61814;BME280;57055;-35.296;149.168;2023-05-12T04:08:34;96168.14;;;14.08;45.41
61814;BME280;57055;-35.296;149.168;2023-05-12T04:11:03;96165.09;;;13.81;44.61
61814;BME280;57055;-35.296;149.168;2023-05-12T04:13:32;96169.74;;;14.00;44.88
61814;BME280;57055;-35.296;149.168;2023-05-12T04:16:01;96167.72;;;13.65;44.82
61814;BME280;57055;-35.296;149.168;2023-05-12T04:18:29;96166.84;;;13.81;44.67
61814;BME280;57055;-35.296;149.168;2023-05-12T04:20:58;96167.57;;;13.72;45.23
61814;BME280;57055;-35.296;149.168;2023-05-12T04:23:27;96164.84;;;13.59;45.39
61814;BME280;57055;-35.296;149.168;2023-05-12T04:25:55;96165.13;;;13.67;45.45
61814;BME280;57055;-35.296;149.168;2023-05-12T04:28:24;96163.90;;;13.52;45.62
61814;BME280;57055;-35.296;149.168;2023-05-12T04:30:52;96161.94;;;13.49;45.78
61814;BME280;57055;-35.296;149.168;2023-05-12T04:33:21;96162.17;;;13.64;45.65
61814;BME280;57055;-35.296;149.168;2023-05-12T04:35:54;96160.41;;;13.74;45.53
61814;BME280;57055;-35.296;149.168;2023-05-12T04:38:23;96159.21;;;13.64;45.77
61814;BME280;57055;-35.296;149.168;2023-05-12T04:40:56;96158.81;;;13.68;45.77
61814;BME280;57055;-35.296;149.168;2023-05-12T04:43:25;96156.97;;;13.73;45.80
61814;BME280;57055;-35.296;149.168;2023-05-12T04:45:55;96159.00;;;13.65;45.77
61814;BME280;57055;-35.296;149.168;2023-05-12T04:48:23;96164.47;;;13.66;46.25
61814;BME280;57055;-35.296;149.168;2023-05-12T04:50:52;96163.81;;;13.45;46.23
61814;BME280;57055;-35.296;149.168;2023-05-12T04:53:21;96161.81;;;13.38;45.62
61814;BME280;57055;-35.296;149.168;2023-05-12T04:55:50;96165.78;;;13.56;46.96
61814;BME280;57055;-35.296;149.168;2023-05-12T04:58:18;96166.11;;;13.34;46.02
61814;BME280;57055;-35.296;149.168;2023-05-12T05:00:47;96166.28;;;13.57;45.95
61814;BME280;57055;-35.296;149.168;2023-05-12T05:03:16;96166.87;;;13.51;46.03
61814;BME280;57055;-35.296;149.168;2023-05-12T05:05:45;96170.53;;;13.50;46.15
61814;BME280;57055;-35.296;149.168;2023-05-12T05:08:14;96175.40;;;13.60;46.24
61814;BME280;57055;-35.296;149.168;2023-05-12T05:10:42;96173.77;;;13.58;45.76
61814;BME280;57055;-35.296;149.168;2023-05-12T05:13:12;96175.13;;;13.32;46.16
61814;BME280;57055;-35.296;149.168;2023-05-12T05:15:40;96174.89;;;13.56;46.27
61814;BME280;57055;-35.296;149.168;2023-05-12T05:18:16;96176.16;;;13.38;46.41
61814;BME280;57055;-35.296;149.168;2023-05-12T05:20:45;96175.47;;;13.57;46.30
61814;BME280;57055;-35.296;149.168;2023-05-12T05:23:13;96175.91;;;13.58;46.25
61814;BME280;57055;-35.296;149.168;2023-05-12T05:25:42;96174.55;;;13.49;46.53
61814;BME280;57055;-35.296;149.168;2023-05-12T05:28:11;96175.40;;;13.45;46.69
61814;BME280;57055;-35.296;149.168;2023-05-12T05:30:39;96174.77;;;13.45;46.75
61814;BME280;57055;-35.296;149.168;2023-05-12T05:33:08;96177.46;;;13.45;46.98
61814;BME280;57055;-35.296;149.168;2023-05-12T05:35:36;96180.92;;;13.42;46.88
61814;BME280;57055;-35.296;149.168;2023-05-12T05:38:05;96183.52;;;13.41;46.71
61814;BME280;57055;-35.296;149.168;2023-05-12T05:40:34;96181.64;;;13.13;46.61
61814;BME280;57055;-35.296;149.168;2023-05-12T05:43:03;96182.84;;;13.37;46.70
61814;BME280;57055;-35.296;149.168;2023-05-12T05:45:32;96180.91;;;13.31;46.66
61814;BME280;57055;-35.296;149.168;2023-05-12T05:48:00;96183.66;;;13.23;47.08
61814;BME280;57055;-35.296;149.168;2023-05-12T05:50:29;96181.47;;;13.26;46.96
61814;BME280;57055;-35.296;149.168;2023-05-12T05:52:58;96184.28;;;13.12;47.37
61814;BME280;57055;-35.296;149.168;2023-05-12T05:55:26;96185.16;;;13.08;47.48
61814;BME280;57055;-35.296;149.168;2023-05-12T05:57:55;96187.54;;;13.10;47.61
61814;BME280;57055;-35.296;149.168;2023-05-12T06:00:24;96188.97;;;13.07;47.86
61814;BME280;57055;-35.296;149.168;2023-05-12T06:02:53;96189.32;;;13.05;47.82
61814;BME280;57055;-35.296;149.168;2023-05-12T06:05:22;96190.97;;;13.00;48.05
61814;BME280;57055;-35.296;149.168;2023-05-12T06:07:51;96191.55;;;12.98;48.49
61814;BME280;57055;-35.296;149.168;2023-05-12T06:10:20;96195.58;;;12.73;48.76
61814;BME280;57055;-35.296;149.168;2023-05-12T06:12:49;96195.53;;;12.87;49.17
61814;BME280;57055;-35.296;149.168;2023-05-12T06:15:18;96197.42;;;12.81;49.17
61814;BME280;57055;-35.296;149.168;2023-05-12T06:17:47;96198.83;;;12.78;49.14
61814;BME280;57055;-35.296;149.168;2023-05-12T06:20:16;96201.91;;;13.01;49.29
61814;BME280;57055;-35.296;149.168;2023-05-12T06:22:44;96203.99;;;12.92;49.64
61814;BME280;57055;-35.296;149.168;2023-05-12T06:25:13;96204.22;;;12.83;49.93
61814;BME280;57055;-35.296;149.168;2023-05-12T06:27:41;96204.22;;;12.49;50.20
61814;BME280;57055;-35.296;149.168;2023-05-12T06:30:11;96206.66;;;12.44;50.56
61814;BME280;57055;-35.296;149.168;2023-05-12T06:32:40;96207.40;;;12.39;50.72
61814;BME280;57055;-35.296;149.168;2023-05-12T06:35:09;96211.11;;;12.59;50.87
61814;BME280;57055;-35.296;149.168;2023-05-12T06:37:38;96214.24;;;12.65;51.20
61814;BME280;57055;-35.296;149.168;2023-05-12T06:40:07;96214.92;;;12.58;51.54
61814;BME280;57055;-35.296;149.168;2023-05-12T06:42:36;96216.89;;;12.40;52.02
61814;BME280;57055;-35.296;149.168;2023-05-12T06:45:06;96225.31;;;12.41;52.07
61814;BME280;57055;-35.296;149.168;2023-05-12T06:47:35;96227.72;;;12.28;52.39
61814;BME280;57055;-35.296;149.168;2023-05-12T06:50:04;96232.31;;;11.97;52.73
61814;BME280;57055;-35.296;149.168;2023-05-12T06:52:33;96231.68;;;12.02;53.04
61814;BME280;57055;-35.296;149.168;2023-05-12T06:55:02;96235.71;;;11.88;53.29
61814;BME280;57055;-35.296;149.168;2023-05-12T06:57:32;96237.42;;;11.71;53.51
61814;BME280;57055;-35.296;149.168;2023-05-12T07:00:00;96241.03;;;11.63;53.91
61814;BME280;57055;-35.296;149.168;2023-05-12T07:02:30;96247.22;;;11.58;54.13
61814;BME280;57055;-35.296;149.168;2023-05-12T07:04:58;96250.95;;;11.70;54.06
61814;BME280;57055;-35.296;149.168;2023-05-12T07:07:27;96254.41;;;11.51;54.41
61814;BME280;57055;-35.296;149.168;2023-05-12T07:09:56;96255.70;;;11.60;54.96
61814;BME280;57055;-35.296;149.168;2023-05-12T07:12:24;96258.67;;;11.26;54.71
61814;BME280;57055;-35.296;149.168;2023-05-12T07:14:53;96259.37;;;11.41;55.13
61814;BME280;57055;-35.296;149.168;2023-05-12T07:17:22;96260.07;;;11.26;55.59
61814;BME280;57055;-35.296;149.168;2023-05-12T07:19:50;96260.26;;;11.11;56.40
61814;BME280;57055;-35.296;149.168;2023-05-12T07:22:19;96260.04;;;10.99;56.29
61814;BME280;57055;-35.296;149.168;2023-05-12T07:24:48;96272.43;;;10.86;56.66
61814;BME280;57055;-35.296;149.168;2023-05-12T07:27:17;96274.02;;;10.49;57.09
61814;BME280;57055;-35.296;149.168;2023-05-12T07:29:45;96275.80;;;10.70;57.27
61814;BME280;57055;-35.296;149.168;2023-05-12T07:32:14;96277.48;;;10.69;56.86
61814;BME280;57055;-35.296;149.168;2023-05-12T07:34:43;96277.07;;;10.56;56.99
61814;BME280;57055;-35.296;149.168;2023-05-12T07:37:11;96282.95;;;10.43;57.00
61814;BME280;57055;-35.296;149.168;2023-05-12T07:39:40;96286.58;;;10.44;57.03
61814;BME280;57055;-35.296;149.168;2023-05-12T07:42:09;96286.86;;;10.44;56.97
61814;BME280;57055;-35.296;149.168;2023-05-12T07:44:37;96292.69;;;10.44;56.90
61814;BME280;57055;-35.296;149.168;2023-05-12T07:47:06;96295.69;;;10.31;56.97
61814;BME280;57055;-35.296;149.168;2023-05-12T07:49:36;96295.17;;;10.27;56.98
61814;BME280;57055;-35.296;149.168;2023-05-12T07:52:05;96297.82;;;10.30;56.56
61814;BME280;57055;-35.296;149.168;2023-05-12T07:54:33;96305.96;;;10.48;56.68
61814;BME280;57055;-35.296;149.168;2023-05-12T07:57:02;96311.07;;;10.19;56.78
61814;BME280;57055;-35.296;149.168;2023-05-12T07:59:31;96309.01;;;10.57;57.22
61814;BME280;57055;-35.296;149.168;2023-05-12T08:02:00;96313.90;;;10.52;56.67
61814;BME280;57055;-35.296;149.168;2023-05-12T08:04:29;96318.34;;;10.19;56.63
61814;BME280;57055;-35.296;149.168;2023-05-12T08:06:58;96322.78;;;10.22;56.39
61814;BME280;57055;-35.296;149.168;2023-05-12T08:09:26;96325.45;;;9.93;56.42
61814;BME280;57055;-35.296;149.168;2023-05-12T08:11:55;96326.53;;;10.18;56.09
61814;BME280;57055;-35.296;149.168;2023-05-12T08:14:25;96332.21;;;9.82;56.39
61814;BME280;57055;-35.296;149.168;2023-05-12T08:16:53;96335.45;;;9.86;56.62
61814;BME280;57055;-35.296;149.168;2023-05-12T08:19:23;96337.72;;;10.00;56.49
61814;BME280;57055;-35.296;149.168;2023-05-12T08:21:52;96343.77;;;9.91;56.59
61814;BME280;57055;-35.296;149.168;2023-05-12T08:24:21;96346.28;;;9.91;56.52
61814;BME280;57055;-35.296;149.168;2023-05-12T08:26:49;96352.03;;;9.84;56.51
61814;BME280;57055;-35.296;149.168;2023-05-12T08:29:18;96352.17;;;9.59;56.36
61814;BME280;57055;-35.296;149.168;2023-05-12T08:31:47;96357.81;;;9.98;56.47
61814;BME280;57055;-35.296;149.168;2023-05-12T08:34:16;96357.76;;;9.60;56.75
61814;BME280;57055;-35.296;149.168;2023-05-12T08:36:45;96362.52;;;9.49;56.89
61814;BME280;57055;-35.296;149.168;2023-05-12T08:39:14;96367.23;;;9.74;57.27
61814;BME280;57055;-35.296;149.168;2023-05-12T08:41:47;96368.66;;;9.45;57.00
61814;BME280;57055;-35.296;149.168;2023-05-12T08:44:18;96372.10;;;9.40;56.94
61814;BME280;57055;-35.296;149.168;2023-05-12T08:46:48;96376.58;;;9.30;57.15
61814;BME280;57055;-35.296;149.168;2023-05-12T08:49:20;96378.79;;;9.29;57.11
61814;BME280;57055;-35.296;149.168;2023-05-12T08:51:55;96379.72;;;9.27;57.09
61814;BME280;57055;-35.296;149.168;2023-05-12T08:54:27;96383.47;;;9.48;57.13
61814;BME280;57055;-35.296;149.168;2023-05-12T08:56:56;96387.01;;;9.54;56.76
61814;BME280;57055;-35.296;149.168;2023-05-12T08:59:26;96394.01;;;9.44;56.91
61814;BME280;57055;-35.296;149.168;2023-05-12T09:01:55;96401.37;;;9.14;56.91
61814;BME280;57055;-35.296;149.168;2023-05-12T09:04:25;96405.25;;;9.31;56.81
61814;BME280;57055;-35.296;149.168;2023-05-12T09:06:55;96407.65;;;8.95;56.93
61814;BME280;57055;-35.296;149.168;2023-05-12T09:09:25;96410.59;;;9.26;56.81
61814;BME280;57055;-35.296;149.168;2023-05-12T09:11:56;96409.10;;;8.96;56.84
61814;BME280;57055;-35.296;149.168;2023-05-12T09:14:26;96413.62;;;8.89;56.99
61814;BME280;57055;-35.296;149.168;2023-05-12T09:17:00;96418.04;;;8.82;57.19
61814;BME280;57055;-35.296;149.168;2023-05-12T09:19:30;96421.96;;;8.99;57.21
61814;BME280;57055;-35.296;149.168;2023-05-12T09:22:00;96423.10;;;8.61;57.45
61814;BME280;57055;-35.296;149.168;2023-05-12T09:24:38;96426.46;;;8.76;57.60
61814;BME280;57055;-35.296;149.168;2023-05-12T09:27:07;96430.83;;;8.92;57.69
61814;BME280;57055;-35.296;149.168;2023-05-12T09:29:45;96430.25;;;8.81;57.82
61814;BME280;57055;-35.296;149.168;2023-05-12T09:32:15;96435.89;;;8.54;57.85
61814;BME280;57055;-35.296;149.168;2023-05-12T09:34:44;96439.43;;;8.77;57.77
61814;BME280;57055;-35.296;149.168;2023-05-12T09:37:13;96439.80;;;8.54;57.67
61814;BME280;57055;-35.296;149.168;2023-05-12T09:39:41;96442.17;;;8.67;57.79
61814;BME280;57055;-35.296;149.168;2023-05-12T09:42:13;96444.04;;;8.42;57.73
61814;BME280;57055;-35.296;149.168;2023-05-12T09:44:42;96444.22;;;8.64;57.55
61814;BME280;57055;-35.296;149.168;2023-05-12T09:47:11;96446.76;;;8.58;57.35
61814;BME280;57055;-35.296;149.168;2023-05-12T09:49:50;96447.55;;;8.51;57.39
61814;BME280;57055;-35.296;149.168;2023-05-12T09:52:21;96452.35;;;8.51;57.34
61814;BME280;57055;-35.296;149.168;2023-05-12T09:54:49;96450.94;;;8.46;57.34
61814;BME280;57055;-35.296;149.168;2023-05-12T09:57:20;96456.67;;;8.24;57.71
61814;BME280;57055;-35.296;149.168;2023-05-12T09:59:50;96458.75;;;8.10;58.03
61814;BME280;57055;-35.296;149.168;2023-05-12T10:02:20;96460.80;;;8.02;57.97
61814;BME280;57055;-35.296;149.168;2023-05-12T10:04:52;96467.35;;;7.90;58.27
61814;BME280;57055;-35.296;149.168;2023-05-12T10:07:25;96472.98;;;7.89;58.12
61814;BME280;57055;-35.296;149.168;2023-05-12T10:09:58;96476.34;;;8.15;57.45
61814;BME280;57055;-35.296;149.168;2023-05-12T10:12:27;96477.71;;;8.12;57.43
61814;BME280;57055;-35.296;149.168;2023-05-12T10:14:56;96478.79;;;8.04;57.60
61814;BME280;57055;-35.296;149.168;2023-05-12T10:17:26;96483.36;;;7.97;57.79
61814;BME280;57055;-35.296;149.168;2023-05-12T10:19:58;96486.23;;;8.06;57.53
61814;BME280;57055;-35.296;149.168;2023-05-12T10:22:28;96487.43;;;7.91;57.73
61814;BME280;57055;-35.296;149.168;2023-05-12T10:24:58;96487.51;;;7.52;57.96
61814;BME280;57055;-35.296;149.168;2023-05-12T10:27:29;96488.72;;;7.85;57.74
61814;BME280;57055;-35.296;149.168;2023-05-12T10:30:00;96487.55;;;8.00;57.82
61814;BME280;57055;-35.296;149.168;2023-05-12T10:32:30;96487.34;;;8.06;57.85
61814;BME280;57055;-35.296;149.168;2023-05-12T10:35:08;96485.81;;;7.70;57.93
61814;BME280;57055;-35.296;149.168;2023-05-12T10:37:37;96491.00;;;7.69;58.40
61814;BME280;57055;-35.296;149.168;2023-05-12T10:40:08;96493.51;;;7.78;58.05
61814;BME280;57055;-35.296;149.168;2023-05-12T10:42:39;96495.43;;;7.46;58.04
61814;BME280;57055;-35.296;149.168;2023-05-12T10:45:20;96491.71;;;7.69;58.15
61814;BME280;57055;-35.296;149.168;2023-05-12T10:47:48;96492.65;;;7.33;58.23
61814;BME280;57055;-35.296;149.168;2023-05-12T10:50:26;96497.22;;;7.87;58.01
61814;BME280;57055;-35.296;149.168;2023-05-12T10:52:56;96497.59;;;7.42;57.71
61814;BME280;57055;-35.296;149.168;2023-05-12T10:55:33;96498.69;;;7.48;57.64
61814;BME280;57055;-35.296;149.168;2023-05-12T10:58:09;96499.78;;;7.57;58.06
61814;BME280;57055;-35.296;149.168;2023-05-12T11:00:49;96499.60;;;7.48;58.33
61814;BME280;57055;-35.296;149.168;2023-05-12T11:03:23;96504.81;;;7.19;58.15
61814;BME280;57055;-35.296;149.168;2023-05-12T11:05:59;96510.60;;;7.51;58.37
61814;BME280;57055;-35.296;149.168;2023-05-12T11:08:29;96509.26;;;7.42;58.62
61814;BME280;57055;-35.296;149.168;2023-05-12T11:10:59;96509.91;;;7.31;59.07
61814;BME280;57055;-35.296;149.168;2023-05-12T11:13:29;96510.70;;;7.43;58.76
61814;BME280;57055;-35.296;149.168;2023-05-12T11:15:58;96511.11;;;7.35;58.44
61814;BME280;57055;-35.296;149.168;2023-05-12T11:18:27;96512.06;;;7.05;58.31
61814;BME280;57055;-35.296;149.168;2023-05-12T11:20:56;96513.81;;;7.42;58.45
61814;BME280;57055;-35.296;149.168;2023-05-12T11:23:25;96514.29;;;7.18;59.08
61814;BME280;57055;-35.296;149.168;2023-05-12T11:25:54;96514.86;;;6.95;59.28
61814;BME280;57055;-35.296;149.168;2023-05-12T11:28:23;96516.39;;;7.30;59.55
61814;BME280;57055;-35.296;149.168;2023-05-12T11:30:52;96516.04;;;7.19;59.20
61814;BME280;57055;-35.296;149.168;2023-05-12T11:33:22;96515.37;;;7.21;58.80
61814;BME280;57055;-35.296;149.168;2023-05-12T11:35:51;96518.84;;;7.03;59.20
61814;BME280;57055;-35.296;149.168;2023-05-12T11:38:20;96518.03;;;7.03;59.22
61814;BME280;57055;-35.296;149.168;2023-05-12T11:40:49;96519.12;;;7.05;59.04
61814;BME280;57055;-35.296;149.168;2023-05-12T11:43:20;96518.41;;;6.89;59.15
61814;BME280;57055;-35.296;149.168;2023-05-12T11:45:49;96517.25;;;6.94;59.62
61814;BME280;57055;-35.296;149.168;2023-05-12T11:48:18;96517.92;;;6.80;59.38
61814;BME280;57055;-35.296;149.168;2023-05-12T11:50:48;96518.62;;;6.81;59.42
61814;BME280;57055;-35.296;149.168;2023-05-12T11:53:18;96519.42;;;6.77;59.39
61814;BME280;57055;-35.296;149.168;2023-05-12T11:55:49;96518.55;;;6.78;59.37
61814;BME280;57055;-35.296;149.168;2023-05-12T11:58:20;96519.16;;;6.84;58.95
61814;BME280;57055;-35.296;149.168;2023-05-12T12:00:49;96517.70;;;7.11;59.35
61814;BME280;57055;-35.296;149.168;2023-05-12T12:03:18;96520.72;;;6.60;59.38
61814;BME280;57055;-35.296;149.168;2023-05-12T12:06:00;96515.18;;;6.60;59.54
61814;BME280;57055;-35.296;149.168;2023-05-12T12:08:29;96512.57;;;6.62;59.20
61814;BME280;57055;-35.296;149.168;2023-05-12T12:10:58;96512.56;;;6.71;58.97
61814;BME280;57055;-35.296;149.168;2023-05-12T12:13:28;96517.78;;;6.84;59.04
61814;BME280;57055;-35.296;149.168;2023-05-12T12:15:57;96514.09;;;7.10;58.85
61814;BME280;57055;-35.296;149.168;2023-05-12T12:18:27;96513.36;;;6.87;58.95
61814;BME280;57055;-35.296;149.168;2023-05-12T12:20:56;96508.89;;;6.76;59.35
61814;BME280;57055;-35.296;149.168;2023-05-12T12:23:25;96509.44;;;6.95;59.39
61814;BME280;57055;-35.296;149.168;2023-05-12T12:25:54;96508.67;;;6.60;60.00
61814;BME280;57055;-35.296;149.168;2023-05-12T12:28:22;96507.72;;;6.63;59.76
61814;BME280;57055;-35.296;149.168;2023-05-12T12:30:51;96507.08;;;6.28;60.16
61814;BME280;57055;-35.296;149.168;2023-05-12T12:33:20;96507.05;;;6.85;59.66
61814;BME280;57055;-35.296;149.168;2023-05-12T12:35:49;96503.75;;;6.69;60.25
61814;BME280;57055;-35.296;149.168;2023-05-12T12:38:18;96504.43;;;6.68;60.74
61814;BME280;57055;-35.296;149.168;2023-05-12T12:40:47;96502.96;;;6.60;60.79
61814;BME280;57055;-35.296;149.168;2023-05-12T12:43:16;96504.95;;;6.81;60.64
61814;BME280;57055;-35.296;149.168;2023-05-12T12:45:45;96501.04;;;6.63;61.22